createdAt,value
2022-08-07T00:00:48.308Z,1000.97
2022-08-07T00:02:41.057Z,1001.03
2022-08-07T00:02:48.307Z,1001.00
2022-08-07T00:03:48.314Z,1000.96
2022-08-07T00:04:48.339Z,1000.97
2022-08-07T00:05:48.303Z,1000.97
2022-08-07T00:06:51.890Z,1000.96
2022-08-07T00:07:48.337Z,1000.96
2022-08-07T00:08:48.328Z,1000.95
2022-08-07T00:09:59.179Z,1000.97
2022-08-07T00:10:57.411Z,1001.00
2022-08-07T00:11:55.760Z,1000.92
2022-08-07T00:12:59.953Z,1000.93
2022-08-07T00:13:48.340Z,1000.99
2022-08-07T00:14:48.332Z,1000.95
2022-08-07T00:15:51.227Z,1000.98
2022-08-07T00:16:48.343Z,1000.95
2022-08-07T00:17:48.317Z,1000.98
2022-08-07T00:18:48.333Z,1000.87
2022-08-07T00:20:02.785Z,1000.94
2022-08-07T00:20:48.328Z,1000.94
2022-08-07T00:21:56.396Z,1000.88
2022-08-07T00:22:51.777Z,1000.85
2022-08-07T00:23:48.328Z,1000.91
2022-08-07T00:24:48.310Z,1000.79
2022-08-07T00:25:52.548Z,1000.89
2022-08-07T00:26:59.193Z,1000.85
2022-08-07T00:27:52.441Z,1000.85
2022-08-07T00:28:56.610Z,1000.85
2022-08-07T00:29:48.364Z,1000.74
2022-08-07T00:30:48.332Z,1000.80
2022-08-07T00:31:51.263Z,1000.83
2022-08-07T00:32:48.380Z,1000.84
2022-08-07T00:33:48.373Z,1000.75
2022-08-07T00:34:48.325Z,1000.75
2022-08-07T00:35:49.705Z,1000.73
2022-08-07T00:36:48.366Z,1000.69
2022-08-07T00:37:48.594Z,1000.72
2022-08-07T00:38:48.343Z,1000.75
2022-08-07T00:39:54.554Z,1000.73
2022-08-07T00:40:48.346Z,1000.73
2022-08-07T00:41:53.514Z,1000.76
2022-08-07T00:42:50.194Z,1000.73
2022-08-07T00:44:01.535Z,1000.69
2022-08-07T00:44:48.354Z,1000.72
2022-08-07T00:45:48.360Z,1000.70
2022-08-07T00:46:48.369Z,1000.71
2022-08-07T00:48:09.410Z,1000.70
2022-08-07T00:48:49.933Z,1000.76
2022-08-07T00:50:21.368Z,1000.72
2022-08-07T00:50:51.092Z,1000.68
2022-08-07T00:51:57.000Z,1000.71
2022-08-07T00:52:48.427Z,1000.68
2022-08-07T00:53:55.032Z,1000.73
2022-08-07T00:54:53.566Z,1000.73
2022-08-07T00:56:03.403Z,1000.68
2022-08-07T00:56:49.728Z,1000.70
2022-08-07T00:57:55.282Z,1000.73
2022-08-07T00:58:49.665Z,1000.71
2022-08-07T00:59:48.362Z,1000.69
2022-08-07T01:00:53.710Z,1000.64
2022-08-07T01:01:48.446Z,1000.68
2022-08-07T01:02:48.358Z,1000.67
2022-08-07T01:03:56.660Z,1000.67
2022-08-07T01:04:48.404Z,1000.71
2022-08-07T01:05:51.666Z,1000.69
2022-08-07T01:06:48.380Z,1000.67
2022-08-07T01:07:48.379Z,1000.67
2022-08-07T01:08:52.808Z,1000.71
2022-08-07T01:10:05.935Z,1000.68
2022-08-07T01:10:56.436Z,1000.60
2022-08-07T01:12:09.454Z,1000.64
2022-08-07T01:12:54.004Z,1000.64
2022-08-07T01:13:55.768Z,1000.60
2022-08-07T01:14:48.436Z,1000.60
2022-08-07T01:16:05.352Z,1000.63
2022-08-07T01:16:48.401Z,1000.69
2022-08-07T01:17:48.400Z,1000.65
2022-08-07T01:18:48.385Z,1000.67
2022-08-07T01:19:52.459Z,1000.66
2022-08-07T01:20:58.434Z,1000.68
2022-08-07T01:21:48.415Z,1000.66
2022-08-07T01:23:00.760Z,1000.68
2022-08-07T01:23:48.415Z,1000.59
2022-08-07T01:24:48.380Z,1000.58
2022-08-07T01:25:55.400Z,1000.62
2022-08-07T01:26:51.609Z,1000.68
2022-08-07T01:27:51.241Z,1000.53
2022-08-07T01:28:48.582Z,1000.61
2022-08-07T01:29:48.395Z,1000.58
2022-08-07T01:30:48.380Z,1000.55
2022-08-07T01:31:48.809Z,1000.46
2022-08-07T01:32:48.415Z,1000.55
2022-08-07T01:33:56.067Z,1000.58
2022-08-07T01:34:49.262Z,1000.52
2022-08-07T01:35:54.463Z,1000.48
2022-08-07T01:36:52.447Z,1000.49
2022-08-07T01:37:48.412Z,1000.54
2022-08-07T01:38:48.403Z,1000.50
2022-08-07T01:39:48.484Z,1000.50
2022-08-07T01:40:48.420Z,1000.44
2022-08-07T01:42:07.232Z,1000.47
2022-08-07T01:42:58.827Z,1000.50
2022-08-07T01:43:48.424Z,1000.47
2022-08-07T01:44:48.429Z,1000.46
2022-08-07T01:45:48.413Z,1000.47
2022-08-07T01:46:48.429Z,1000.43
2022-08-07T01:48:19.073Z,1000.47
2022-08-07T01:48:48.419Z,1000.44
2022-08-07T01:49:48.417Z,1000.51
2022-08-07T01:50:48.456Z,1000.54
2022-08-07T01:52:02.471Z,1000.51
2022-08-07T01:52:49.713Z,1000.48
2022-08-07T01:54:11.902Z,1000.52
2022-08-07T01:54:48.431Z,1000.51
2022-08-07T01:55:48.429Z,1000.51
2022-08-07T01:56:49.181Z,1000.46
2022-08-07T01:58:05.774Z,1000.46
2022-08-07T01:58:48.433Z,1000.50
2022-08-07T01:59:48.440Z,1000.55
2022-08-07T02:00:49.306Z,1000.55
2022-08-07T02:02:02.406Z,1000.52
2022-08-07T02:03:12.265Z,1000.53
2022-08-07T02:03:50.209Z,1000.43
2022-08-07T02:04:55.615Z,1000.56
2022-08-07T02:05:59.346Z,1000.52
2022-08-07T02:06:48.493Z,1000.51
2022-08-07T02:07:51.185Z,1000.51
2022-08-07T02:08:48.526Z,1000.52
2022-08-07T02:09:52.648Z,1000.57
2022-08-07T02:10:48.686Z,1000.49
2022-08-07T02:12:04.032Z,1000.53
2022-08-07T02:12:49.201Z,1000.53
2022-08-07T02:13:57.412Z,1000.60
2022-08-07T02:14:48.468Z,1000.58
2022-08-07T02:15:48.491Z,1000.60
2022-08-07T02:16:48.509Z,1000.57
2022-08-07T02:17:49.348Z,1000.58
2022-08-07T02:18:48.491Z,1000.54
2022-08-07T02:20:04.108Z,1000.60
2022-08-07T02:20:51.969Z,1000.63
2022-08-07T02:21:55.532Z,1000.66
2022-08-07T02:22:54.816Z,1000.65
2022-08-07T02:23:49.358Z,1000.66
2022-08-07T02:24:48.653Z,1000.61
2022-08-07T02:26:30.995Z,1000.63
2022-08-07T02:26:48.614Z,1000.59
2022-08-07T02:28:25.398Z,1000.65
2022-08-07T02:29:15.699Z,1000.55
2022-08-07T02:30:15.688Z,1000.62
2022-08-07T02:31:27.958Z,1000.55
2022-08-07T02:32:15.708Z,1000.64
2022-08-07T02:33:15.736Z,1000.61
2022-08-07T02:34:17.353Z,1000.61
2022-08-07T02:35:15.692Z,1000.57
2022-08-07T02:36:29.287Z,1000.57
2022-08-07T02:37:15.730Z,1000.65
2022-08-07T02:38:15.774Z,1000.66
2022-08-07T02:39:17.382Z,1000.61
2022-08-07T02:40:31.009Z,1000.66
2022-08-07T02:41:21.746Z,1000.64
2022-08-07T02:42:16.298Z,1000.70
2022-08-07T02:43:15.741Z,1000.64
2022-08-07T02:44:15.699Z,1000.59
2022-08-07T02:46:00.982Z,1000.67
2022-08-07T02:46:15.738Z,1000.67
2022-08-07T02:47:19.425Z,1000.63
2022-08-07T02:48:15.935Z,1000.61
2022-08-07T02:49:56.216Z,1000.67
2022-08-07T02:50:15.736Z,1000.59
2022-08-07T02:51:41.906Z,1000.65
2022-08-07T02:52:15.728Z,1000.63
2022-08-07T02:53:15.773Z,1000.60
2022-08-07T02:54:15.702Z,1000.64
2022-08-07T02:55:15.706Z,1000.64
2022-08-07T02:56:20.944Z,1000.62
2022-08-07T02:57:15.730Z,1000.64
2022-08-07T02:58:15.714Z,1000.65
2022-08-07T02:59:15.671Z,1000.67
2022-08-07T03:00:15.728Z,1000.68
2022-08-07T03:01:18.799Z,1000.60
2022-08-07T03:02:15.752Z,1000.52
2022-08-07T03:03:22.664Z,1000.64
2022-08-07T03:04:15.765Z,1000.61
2022-08-07T03:05:20.819Z,1000.57
2022-08-07T03:06:16.482Z,1000.50
2022-08-07T03:07:15.895Z,1000.53
2022-08-07T03:08:15.855Z,1000.47
2022-08-07T03:09:42.448Z,1000.48
2022-08-07T03:10:15.863Z,1000.50
2022-08-07T03:11:15.874Z,1000.50
2022-08-07T03:12:22.727Z,1000.53
2022-08-07T03:13:15.869Z,1000.50
2022-08-07T03:14:15.910Z,1000.52
2022-08-07T03:15:15.885Z,1000.55
2022-08-07T03:16:15.912Z,1000.49
2022-08-07T03:17:15.925Z,1000.44
2022-08-07T03:18:20.028Z,1000.49
2022-08-07T03:19:15.871Z,1000.55
2022-08-07T03:20:15.970Z,1000.55
2022-08-07T03:21:18.898Z,1000.49
2022-08-07T03:22:18.720Z,1000.50
2022-08-07T03:23:19.097Z,1000.51
2022-08-07T03:24:20.754Z,1000.51
2022-08-07T03:25:15.977Z,1000.51
2022-08-07T03:26:21.192Z,1000.45
2022-08-07T03:27:15.999Z,1000.50
2022-08-07T03:28:38.258Z,1000.45
2022-08-07T03:29:15.977Z,1000.42
2022-08-07T03:30:15.978Z,1000.39
2022-08-07T03:31:16.048Z,1000.41
2022-08-07T03:32:16.015Z,1000.44
2022-08-07T03:33:16.005Z,1000.41
2022-08-07T03:34:18.835Z,1000.39
2022-08-07T03:35:17.737Z,1000.39
2022-08-07T03:36:16.028Z,1000.37
2022-08-07T03:37:16.013Z,1000.36
2022-08-07T03:38:16.015Z,1000.28
2022-08-07T03:39:16.060Z,1000.36
2022-08-07T03:40:16.846Z,1000.34
2022-08-07T03:41:16.016Z,1000.37
2022-08-07T03:42:16.076Z,1000.38
2022-08-07T03:43:16.039Z,1000.31
2022-08-07T03:44:16.119Z,1000.29
2022-08-07T03:45:29.881Z,1000.39
2022-08-07T03:46:18.177Z,1000.33
2022-08-07T03:47:16.067Z,1000.32
2022-08-07T03:48:16.057Z,1000.33
2022-08-07T03:49:16.624Z,1000.37
2022-08-07T03:50:16.086Z,1000.37
2022-08-07T03:51:16.083Z,1000.41
2022-08-07T03:52:22.673Z,1000.35
2022-08-07T03:53:16.048Z,1000.45
2022-08-07T03:54:35.980Z,1000.42
2022-08-07T03:55:16.068Z,1000.33
2022-08-07T03:56:16.098Z,1000.37
2022-08-07T03:58:34.438Z,1000.43
2022-08-07T03:59:05.609Z,1000.38
2022-08-07T03:59:16.516Z,1000.38
2022-08-07T04:00:16.093Z,1000.37
2022-08-07T04:01:16.134Z,1000.37
2022-08-07T04:02:16.120Z,1000.43
2022-08-07T04:03:16.095Z,1000.36
2022-08-07T04:04:17.229Z,1000.39
2022-08-07T04:05:16.086Z,1000.38
2022-08-07T04:06:37.478Z,1000.35
2022-08-07T04:07:17.453Z,1000.44
2022-08-07T04:08:18.614Z,1000.39
2022-08-07T04:09:16.287Z,1000.38
2022-08-07T04:10:19.778Z,1000.37
2022-08-07T04:12:24.145Z,1000.40
2022-08-07T04:12:24.947Z,1000.39
2022-08-07T04:13:16.135Z,1000.41
2022-08-07T04:14:38.782Z,1000.40
2022-08-07T04:15:16.089Z,1000.46
2022-08-07T04:16:16.106Z,1000.50
2022-08-07T04:17:20.307Z,1000.44
2022-08-07T04:18:56.364Z,1000.52
2022-08-07T04:19:16.477Z,1000.53
2022-08-07T04:20:16.097Z,1000.48
2022-08-07T04:21:16.559Z,1000.44
2022-08-07T04:22:17.811Z,1000.48
2022-08-07T04:23:19.201Z,1000.50
2022-08-07T04:24:30.475Z,1000.50
2022-08-07T04:25:16.112Z,1000.46
2022-08-07T04:26:16.926Z,1000.51
2022-08-07T04:27:25.163Z,1000.50
2022-08-07T04:28:16.132Z,1000.55
2022-08-07T04:29:16.282Z,1000.51
2022-08-07T04:30:21.318Z,1000.51
2022-08-07T04:31:19.703Z,1000.56
2022-08-07T04:32:16.147Z,1000.54
2022-08-07T04:33:16.154Z,1000.61
2022-08-07T04:34:16.388Z,1000.56
2022-08-07T04:35:16.127Z,1000.62
2022-08-07T04:36:16.145Z,1000.59
2022-08-07T04:37:20.593Z,1000.56
2022-08-07T04:38:16.146Z,1000.66
2022-08-07T04:39:16.214Z,1000.63
2022-08-07T04:40:16.154Z,1000.66
2022-08-07T04:41:19.195Z,1000.60
2022-08-07T04:42:16.161Z,1000.65
2022-08-07T04:43:16.140Z,1000.64
2022-08-07T04:44:19.077Z,1000.64
2022-08-07T04:45:18.668Z,1000.63
2022-08-07T04:46:20.137Z,1000.63
2022-08-07T04:47:23.685Z,1000.65
2022-08-07T04:48:16.374Z,1000.67
2022-08-07T04:49:24.234Z,1000.69
2022-08-07T04:50:16.164Z,1000.65
2022-08-07T04:51:16.155Z,1000.66
2022-08-07T04:52:18.386Z,1000.67
2022-08-07T04:53:16.463Z,1000.67
2022-08-07T04:54:16.162Z,1000.68
2022-08-07T04:58:11.442Z,1000.66
2022-08-07T04:58:13.157Z,1000.70
2022-08-07T04:58:15.734Z,1000.63
2022-08-07T04:58:29.330Z,1000.69
2022-08-07T05:00:11.065Z,1000.69
2022-08-07T05:00:18.809Z,1000.68
2022-08-07T05:01:18.200Z,1000.64
2022-08-07T05:02:16.787Z,1000.74
2022-08-07T05:03:31.054Z,1000.70
2022-08-07T05:04:17.790Z,1000.76
2022-08-07T05:05:53.857Z,1000.73
2022-08-07T05:06:19.850Z,1000.72
2022-08-07T05:07:20.510Z,1000.71
2022-08-07T05:08:16.156Z,1000.72
2022-08-07T05:09:16.174Z,1000.77
2022-08-07T05:10:16.168Z,1000.75
2022-08-07T05:11:19.129Z,1000.72
2022-08-07T05:12:26.776Z,1000.70
2022-08-07T05:14:52.110Z,1000.68
2022-08-07T05:14:55.987Z,1000.73
2022-08-07T05:15:23.290Z,1000.70
2022-08-07T05:16:16.191Z,1000.69
2022-08-07T05:17:52.455Z,1000.81
2022-08-07T05:18:16.185Z,1000.74
2022-08-07T05:19:16.165Z,1000.70
2022-08-07T05:20:16.178Z,1000.66
2022-08-07T05:21:16.143Z,1000.63
2022-08-07T05:22:27.853Z,1000.64
2022-08-07T05:23:16.418Z,1000.72
2022-08-07T05:24:16.168Z,1000.67
2022-08-07T05:25:25.697Z,1000.64
2022-08-07T05:26:23.539Z,1000.70
2022-08-07T05:28:03.182Z,1000.80
2022-08-07T05:28:20.656Z,1000.67
2022-08-07T05:29:16.186Z,1000.64
2022-08-07T05:30:16.202Z,1000.71
2022-08-07T05:31:16.744Z,1000.72
2022-08-07T05:32:16.185Z,1000.73
2022-08-07T05:33:16.188Z,1000.72
2022-08-07T05:34:16.205Z,1000.79
2022-08-07T05:35:17.587Z,1000.86
2022-08-07T05:36:22.533Z,1000.82
2022-08-07T05:37:16.185Z,1000.83
2022-08-07T05:39:01.105Z,1000.81
2022-08-07T05:40:17.227Z,1000.82
2022-08-07T05:40:18.925Z,1000.84
2022-08-07T05:41:18.286Z,1000.87
2022-08-07T05:42:33.355Z,1000.87
2022-08-07T05:43:16.175Z,1000.89
2022-08-07T05:44:16.222Z,1000.74
2022-08-07T05:45:46.357Z,1000.79
2022-08-07T05:46:16.206Z,1000.83
2022-08-07T05:47:18.660Z,1000.84
2022-08-07T05:48:16.539Z,1000.86
2022-08-07T05:49:16.203Z,1000.79
2022-08-07T05:50:16.228Z,1000.86
2022-08-07T05:51:16.218Z,1000.77
2022-08-07T05:52:16.226Z,1000.79
2022-08-07T05:54:13.308Z,1000.86
2022-08-07T05:54:31.026Z,1000.86
2022-08-07T05:55:16.178Z,1000.88
2022-08-07T05:56:16.233Z,1000.94
2022-08-07T05:57:16.229Z,1000.90
2022-08-07T05:58:16.201Z,1000.93
2022-08-07T05:59:16.233Z,1000.82
2022-08-07T06:00:17.700Z,1000.92
2022-08-07T06:01:16.274Z,1000.88
2022-08-07T06:02:21.495Z,1000.90
2022-08-07T06:03:16.231Z,1000.90
2022-08-07T06:04:17.483Z,1000.88
2022-08-07T06:05:16.233Z,1000.96
2022-08-07T06:06:17.423Z,1000.89
2022-08-07T06:07:23.059Z,1000.88
2022-08-07T06:08:30.786Z,1000.96
2022-08-07T06:09:16.233Z,1000.85
2022-08-07T06:10:16.249Z,1000.95
2022-08-07T06:11:16.268Z,1000.85
2022-08-07T06:12:16.217Z,1000.85
2022-08-07T06:13:16.240Z,1000.88
2022-08-07T06:14:20.816Z,1000.87
2022-08-07T06:15:16.420Z,1000.90
2022-08-07T06:16:16.216Z,1000.91
2022-08-07T06:17:16.226Z,1000.88
2022-08-07T06:18:16.249Z,1000.94
2022-08-07T06:19:18.060Z,1000.88
2022-08-07T06:20:25.549Z,1000.91
2022-08-07T06:22:14.292Z,1000.88
2022-08-07T06:22:23.997Z,1000.84
2022-08-07T06:23:46.034Z,1000.92
2022-08-07T06:24:53.032Z,1000.75
2022-08-07T06:25:16.240Z,1000.84
2022-08-07T06:26:16.269Z,1000.83
2022-08-07T06:27:22.823Z,1000.91
2022-08-07T06:28:16.238Z,1000.91
2022-08-07T06:29:16.222Z,1000.99
2022-08-07T06:30:32.120Z,1000.93
2022-08-07T06:31:16.265Z,1000.94
2022-08-07T06:32:16.249Z,1000.86
2022-08-07T06:33:16.743Z,1000.90
2022-08-07T06:34:16.263Z,1000.88
2022-08-07T06:35:17.717Z,1000.93
2022-08-07T06:36:16.259Z,1000.88
2022-08-07T06:37:17.279Z,1000.84
2022-08-07T06:38:19.933Z,1000.86
2022-08-07T06:40:12.973Z,1000.87
2022-08-07T06:40:21.385Z,1000.85
2022-08-07T06:41:16.327Z,1000.82
2022-08-07T06:42:16.261Z,1000.86
2022-08-07T06:43:21.660Z,1000.79
2022-08-07T06:44:16.372Z,1000.88
2022-08-07T06:45:18.450Z,1000.81
2022-08-07T06:46:31.232Z,1000.85
2022-08-07T06:47:16.328Z,1000.87
2022-08-07T06:48:16.260Z,1000.67
2022-08-07T06:49:16.283Z,1000.70
2022-08-07T06:50:16.283Z,1000.74
2022-08-07T06:51:16.273Z,1000.77
2022-08-07T06:52:16.278Z,1000.81
2022-08-07T06:54:11.823Z,1000.75
2022-08-07T06:55:31.764Z,1000.67
2022-08-07T06:55:33.522Z,1000.68
2022-08-07T06:56:16.271Z,1000.59
2022-08-07T06:57:16.255Z,1000.65
2022-08-07T06:58:16.673Z,1000.68
2022-08-07T07:00:11.804Z,1000.61
2022-08-07T07:00:18.462Z,1000.65
2022-08-07T07:01:16.357Z,1000.68
2022-08-07T07:02:48.461Z,1000.68
2022-08-07T07:03:17.287Z,1000.62
2022-08-07T07:04:32.923Z,1000.69
2022-08-07T07:06:03.947Z,1000.70
2022-08-07T07:06:23.798Z,1000.59
2022-08-07T07:07:19.188Z,1000.64
2022-08-07T07:08:18.886Z,1000.65
2022-08-07T07:09:16.319Z,1000.62
2022-08-07T07:10:16.308Z,1000.64
2022-08-07T07:12:08.849Z,1000.66
2022-08-07T07:12:21.751Z,1000.67
2022-08-07T07:13:16.316Z,1000.62
2022-08-07T07:14:16.314Z,1000.63
2022-08-07T07:15:23.855Z,1000.58
2022-08-07T07:16:19.540Z,1000.60
2022-08-07T07:17:16.385Z,1000.60
2022-08-07T07:18:47.200Z,1000.59
2022-08-07T07:19:56.513Z,1000.55
2022-08-07T07:20:16.307Z,1000.53
2022-08-07T07:21:19.807Z,1000.60
2022-08-07T07:22:35.988Z,1000.52
2022-08-07T07:24:08.821Z,1000.48
2022-08-07T07:24:16.332Z,1000.54
2022-08-07T07:26:32.488Z,1000.52
2022-08-07T07:26:35.673Z,1000.46
2022-08-07T07:27:16.334Z,1000.48
2022-08-07T07:28:29.656Z,1000.47
2022-08-07T07:29:56.456Z,1000.51
2022-08-07T07:30:32.362Z,1000.52
2022-08-07T07:31:17.305Z,1000.47
2022-08-07T07:32:16.336Z,1000.46
2022-08-07T07:33:16.341Z,1000.50
2022-08-07T07:34:16.304Z,1000.47
2022-08-07T07:35:16.345Z,1000.49
2022-08-07T07:36:17.331Z,1000.50
2022-08-07T07:37:45.520Z,1000.49
2022-08-07T07:38:16.381Z,1000.48
2022-08-07T07:39:16.398Z,1000.39
2022-08-07T07:40:16.398Z,1000.40
2022-08-07T07:41:16.370Z,1000.32
2022-08-07T07:42:17.634Z,1000.32
2022-08-07T07:43:18.702Z,1000.34
2022-08-07T07:44:21.512Z,1000.32
2022-08-07T07:45:16.351Z,1000.31
2022-08-07T07:46:39.946Z,1000.29
2022-08-07T07:47:42.943Z,1000.42
2022-08-07T07:48:35.045Z,1000.37
2022-08-07T07:50:33.642Z,1000.34
2022-08-07T07:50:35.483Z,1000.29
2022-08-07T07:51:16.354Z,1000.38
2022-08-07T07:52:16.386Z,1000.35
2022-08-07T07:53:22.899Z,1000.30
2022-08-07T07:54:16.342Z,1000.23
2022-08-07T07:55:16.353Z,1000.34
2022-08-07T07:56:16.370Z,1000.30
2022-08-07T07:57:16.368Z,1000.30
2022-08-07T07:58:16.356Z,1000.31
2022-08-07T07:59:16.349Z,1000.28
2022-08-07T08:00:29.075Z,1000.30
2022-08-07T08:02:01.812Z,1000.24
2022-08-07T08:02:33.626Z,1000.22
2022-08-07T08:04:09.773Z,1000.22
2022-08-07T08:04:16.413Z,1000.26
2022-08-07T08:05:16.408Z,1000.29
2022-08-07T08:06:16.409Z,1000.21
2022-08-07T08:07:20.124Z,1000.13
2022-08-07T08:08:35.015Z,1000.21
2022-08-07T08:09:16.413Z,1000.26
2022-08-07T08:10:35.720Z,1000.15
2022-08-07T08:11:18.204Z,1000.17
2022-08-07T08:12:31.192Z,1000.24
2022-08-07T08:13:16.393Z,1000.19
2022-08-07T08:14:19.234Z,1000.13
2022-08-07T08:15:16.417Z,1000.17
2022-08-07T08:16:16.402Z,1000.16
2022-08-07T08:17:57.803Z,1000.14
2022-08-07T08:18:17.531Z,1000.14
2022-08-07T08:20:16.345Z,1000.10
2022-08-07T08:20:23.177Z,1000.15
2022-08-07T08:21:16.419Z,1000.15
2022-08-07T08:22:16.418Z,1000.15
2022-08-07T08:23:16.409Z,1000.14
2022-08-07T08:24:36.154Z,1000.03
2022-08-07T08:25:25.063Z,1000.05
2022-08-07T08:26:16.429Z,1000.06
2022-08-07T08:27:16.686Z,1000.03
2022-08-07T08:28:43.370Z,1000.10
2022-08-07T08:29:54.260Z,1000.06
2022-08-07T08:30:51.279Z,1000.06
2022-08-07T08:32:17.092Z,999.97
2022-08-07T08:32:47.029Z,1000.07
2022-08-07T08:33:49.032Z,1000.05
2022-08-07T08:34:42.857Z,999.95
2022-08-07T08:35:49.894Z,1000.00
2022-08-07T08:36:42.854Z,999.98
2022-08-07T08:37:59.442Z,999.99
2022-08-07T08:38:42.909Z,999.97
2022-08-07T08:39:55.002Z,999.97
2022-08-07T08:40:43.895Z,999.95
2022-08-07T08:41:57.403Z,999.89
2022-08-07T08:42:42.871Z,999.91
2022-08-07T08:43:56.290Z,999.88
2022-08-07T08:44:44.348Z,999.88
2022-08-07T08:45:59.476Z,999.93
2022-08-07T08:46:45.020Z,999.85
2022-08-07T08:47:51.955Z,999.91
2022-08-07T08:48:42.874Z,999.83
2022-08-07T08:49:57.224Z,999.86
2022-08-07T08:50:42.892Z,999.79
2022-08-07T08:51:49.902Z,999.86
2022-08-07T08:52:53.798Z,999.81
2022-08-07T08:53:42.871Z,999.82
2022-08-07T08:54:42.899Z,999.87
2022-08-07T08:55:55.399Z,999.83
2022-08-07T08:56:47.265Z,999.84
2022-08-07T08:57:42.895Z,999.83
2022-08-07T08:58:42.923Z,999.83
2022-08-07T08:59:48.084Z,999.80
2022-08-07T09:00:42.886Z,999.89
2022-08-07T09:01:44.007Z,999.77
2022-08-07T09:02:42.933Z,999.75
2022-08-07T09:03:47.470Z,999.84
2022-08-07T09:04:42.898Z,999.85
2022-08-07T09:05:43.029Z,999.70
2022-08-07T09:06:47.662Z,999.78
2022-08-07T09:07:46.280Z,999.77
2022-08-07T09:08:43.046Z,999.74
2022-08-07T09:09:43.089Z,999.72
2022-08-07T09:10:44.353Z,999.72
2022-08-07T09:11:53.320Z,999.63
2022-08-07T09:12:43.093Z,999.62
2022-08-07T09:13:43.062Z,999.66
2022-08-07T09:14:50.731Z,999.64
2022-08-07T09:16:25.929Z,999.66
2022-08-07T09:16:43.073Z,999.54
2022-08-07T09:17:59.462Z,999.64
2022-08-07T09:18:47.212Z,999.64
2022-08-07T09:19:44.838Z,999.70
2022-08-07T09:20:43.113Z,999.69
2022-08-07T09:22:09.992Z,999.68
2022-08-07T09:24:28.373Z,999.64
2022-08-07T09:24:32.504Z,999.60
2022-08-07T09:24:59.057Z,999.65
2022-08-07T09:25:43.082Z,999.60
2022-08-07T09:26:47.817Z,999.63
2022-08-07T09:27:59.848Z,999.62
2022-08-07T09:30:02.216Z,999.57
2022-08-07T09:30:03.264Z,999.63
2022-08-07T09:30:44.139Z,999.62
2022-08-07T09:31:48.580Z,999.62
2022-08-07T09:32:43.067Z,999.49
2022-08-07T09:33:56.660Z,999.53
2022-08-07T09:34:43.075Z,999.52
2022-08-07T09:36:03.202Z,999.54
2022-08-07T09:36:46.801Z,999.45
2022-08-07T09:37:53.631Z,999.47
2022-08-07T09:38:43.088Z,999.52
2022-08-07T09:39:54.755Z,999.57
2022-08-07T09:40:43.144Z,999.57
2022-08-07T09:41:58.683Z,999.49
2022-08-07T09:42:43.140Z,999.52
2022-08-07T09:44:05.644Z,999.49
2022-08-07T09:44:58.614Z,999.48
2022-08-07T09:47:50.342Z,999.44
2022-08-07T09:47:51.296Z,999.49
2022-08-07T09:48:00.218Z,999.42
2022-08-07T09:48:56.149Z,999.44
2022-08-07T09:50:02.026Z,999.44
2022-08-07T09:50:43.129Z,999.43
2022-08-07T09:52:16.324Z,999.40
2022-08-07T09:52:43.154Z,999.41
2022-08-07T09:53:55.171Z,999.34
2022-08-07T09:54:43.131Z,999.40
2022-08-07T09:56:03.400Z,999.28
2022-08-07T09:56:43.102Z,999.29
2022-08-07T09:57:46.745Z,999.29
2022-08-07T09:58:43.134Z,999.26
2022-08-07T09:59:46.658Z,999.30
2022-08-07T10:00:43.173Z,999.27
2022-08-07T10:01:51.904Z,999.28
2022-08-07T10:02:53.695Z,999.22
2022-08-07T10:04:05.127Z,999.24
2022-08-07T10:04:47.775Z,999.16
2022-08-07T10:05:59.974Z,999.19
2022-08-07T10:06:49.220Z,999.19
2022-08-07T10:07:53.711Z,999.20
2022-08-07T10:08:43.114Z,999.19
2022-08-07T10:10:00.341Z,999.10
2022-08-07T10:11:17.177Z,999.10
2022-08-07T10:12:02.433Z,999.14
2022-08-07T10:12:52.721Z,999.20
2022-08-07T10:14:00.665Z,999.23
2022-08-07T10:14:43.151Z,999.19
2022-08-07T10:15:44.350Z,999.08
2022-08-07T10:16:45.171Z,999.09
2022-08-07T10:18:02.673Z,999.06
2022-08-07T10:18:43.139Z,999.03
2022-08-07T10:19:43.196Z,999.09
2022-08-07T10:20:44.417Z,999.08
2022-08-07T10:22:12.388Z,999.07
2022-08-07T10:22:43.268Z,999.07
2022-08-07T10:24:04.844Z,999.01
2022-08-07T10:24:43.230Z,998.94
2022-08-07T10:25:43.680Z,998.93
2022-08-07T10:26:44.173Z,998.99
2022-08-07T10:27:46.576Z,998.91
2022-08-07T10:28:43.429Z,998.95
2022-08-07T10:29:46.035Z,998.88
2022-08-07T10:30:43.180Z,998.96
2022-08-07T10:31:45.280Z,998.90
2022-08-07T10:32:52.415Z,998.86
2022-08-07T10:34:06.034Z,998.92
2022-08-07T10:34:45.241Z,998.82
2022-08-07T10:35:55.158Z,998.89
2022-08-07T10:36:43.182Z,998.88
2022-08-07T10:38:00.378Z,998.79
2022-08-07T10:38:48.703Z,998.92
2022-08-07T10:40:03.283Z,998.85
2022-08-07T10:40:43.199Z,998.96
2022-08-07T10:41:52.273Z,998.97
2022-08-07T10:42:43.332Z,998.83
2022-08-07T10:43:43.245Z,998.87
2022-08-07T10:44:45.194Z,998.84
2022-08-07T10:45:57.739Z,998.85
2022-08-07T10:46:43.199Z,998.72
2022-08-07T10:47:53.518Z,998.68
2022-08-07T10:48:44.074Z,998.82
2022-08-07T10:49:49.398Z,998.80
2022-08-07T10:50:50.022Z,998.73
2022-08-07T10:52:02.219Z,998.86
2022-08-07T10:52:43.224Z,998.74
2022-08-07T10:53:44.048Z,998.79
2022-08-07T10:54:55.161Z,998.80
2022-08-07T10:55:43.280Z,998.80
2022-08-07T10:56:43.214Z,998.73
2022-08-07T10:57:43.249Z,998.83
2022-08-07T10:58:46.193Z,998.82
2022-08-07T10:59:47.528Z,998.80
2022-08-07T11:00:50.278Z,998.86
2022-08-07T11:01:51.707Z,998.74
2022-08-07T11:02:49.324Z,998.77
2022-08-07T11:03:54.911Z,998.75
2022-08-07T11:04:43.276Z,998.71
2022-08-07T11:05:49.293Z,998.65
2022-08-07T11:06:44.562Z,998.76
2022-08-07T11:07:58.440Z,998.65
2022-08-07T11:08:43.329Z,998.61
2022-08-07T11:10:09.537Z,998.63
2022-08-07T11:10:43.339Z,998.59
2022-08-07T11:11:43.327Z,998.57
2022-08-07T11:12:43.534Z,998.67
2022-08-07T11:14:57.142Z,998.62
2022-08-07T11:14:57.329Z,998.58
2022-08-07T11:15:43.434Z,998.52
2022-08-07T11:16:45.895Z,998.68
2022-08-07T11:17:45.853Z,998.65
2022-08-07T11:18:43.425Z,998.62
2022-08-07T11:19:43.429Z,998.59
2022-08-07T11:20:43.437Z,998.49
2022-08-07T11:21:43.411Z,998.54
2022-08-07T11:22:46.198Z,998.58
2022-08-07T11:23:43.437Z,998.49
2022-08-07T11:24:45.685Z,998.50
2022-08-07T11:25:49.848Z,998.48
2022-08-07T11:26:49.889Z,998.49
2022-08-07T11:28:02.524Z,998.51
2022-08-07T11:28:43.440Z,998.47
2022-08-07T11:29:48.148Z,998.49
2022-08-07T11:30:43.432Z,998.48
2022-08-07T11:31:45.106Z,998.51
2022-08-07T11:32:43.439Z,998.40
2022-08-07T11:33:53.977Z,998.37
2022-08-07T11:34:43.453Z,998.39
2022-08-07T11:35:59.650Z,998.34
2022-08-07T11:36:43.445Z,998.28
2022-08-07T11:37:58.338Z,998.35
2022-08-07T11:38:43.458Z,998.29
2022-08-07T11:40:00.274Z,998.29
2022-08-07T11:40:47.760Z,998.21
2022-08-07T11:42:00.272Z,998.21
2022-08-07T11:42:43.502Z,998.17
2022-08-07T11:44:10.578Z,998.21
2022-08-07T11:44:52.478Z,998.17
2022-08-07T11:45:53.161Z,998.11
2022-08-07T11:46:43.447Z,998.14
2022-08-07T11:47:56.389Z,998.12
2022-08-07T11:49:04.128Z,998.09
2022-08-07T11:50:11.234Z,998.14
2022-08-07T11:50:44.672Z,998.08
2022-08-07T11:51:44.994Z,998.08
2022-08-07T11:52:43.483Z,998.08
2022-08-07T11:54:00.667Z,998.07
2022-08-07T11:54:46.436Z,998.13
2022-08-07T11:56:25.235Z,998.15
2022-08-07T11:56:43.479Z,998.09
2022-08-07T11:58:00.293Z,998.11
2022-08-07T11:58:43.482Z,998.08
2022-08-07T12:00:11.373Z,998.07
2022-08-07T12:00:53.621Z,998.14
2022-08-07T12:01:59.549Z,998.10
2022-08-07T12:02:52.544Z,998.13
2022-08-07T12:03:45.064Z,998.15
2022-08-07T12:04:43.536Z,998.07
2022-08-07T12:05:48.826Z,998.15
2022-08-07T12:06:50.866Z,998.03
2022-08-07T12:07:43.774Z,998.06
2022-08-07T12:08:43.539Z,998.08
2022-08-07T12:09:43.539Z,998.06
2022-08-07T12:10:43.560Z,998.10
2022-08-07T12:12:09.465Z,998.01
2022-08-07T12:12:43.549Z,998.05
2022-08-07T12:13:47.430Z,998.03